8WI3 weather

Rwnway Leasing Inc Nr 2 Airport
Plover, Wisconsin, United States

Public forecast

Using degrees Fahrenheit for public forecast. Weather courtesy of forecast.io.

METAR (pilot weather report)

Closest report is Stevens Point Municipal Airport, 7.5 nm (14.0 km) N. Retrieved 2019/08/18 20:35 UTC (22 minutes ago):

KSTE 182035Z AUTO 28010G22KT 10SM SCT027 SCT032 SCT050 23/16 A2981 RMK AO2 T02260156

TAF (pilot weather forecast)

Closest forecast is Central Wisconsin Airport, 21.9 nm (40.6 km) NNW. Retrieved 2019/08/18 18:22 UTC (3 hours ago):

TAF KCWA 181720Z 1818/1918 28013G23KT P6SM BKN018 FM182100 28011G18KT P6SM BKN030 FM190000 29006KT P6SM SCT050 FM190400 33004KT P6SM SKC FM191500 24006KT P6SM FEW040